createdAt,value
2022-07-30T00:01:37.073Z,19.84
2022-07-30T00:04:07.238Z,19.51
2022-07-30T00:06:37.979Z,19.76
2022-07-30T00:09:07.019Z,19.81
2022-07-30T00:11:35.615Z,19.78
2022-07-30T00:14:09.116Z,19.71
2022-07-30T00:16:37.943Z,19.71
2022-07-30T00:19:07.057Z,19.65
2022-07-30T00:21:39.025Z,19.32
2022-07-30T00:24:09.152Z,19.54
2022-07-30T00:26:38.044Z,19.51
2022-07-30T00:29:08.389Z,19.45
2022-07-30T00:31:37.005Z,19.09
2022-07-30T00:34:06.004Z,19.39
2022-07-30T00:36:40.317Z,19.03
2022-07-30T00:39:09.289Z,19.32
2022-07-30T00:41:55.855Z,19.27
2022-07-30T00:44:26.135Z,19.22
2022-07-30T00:46:55.182Z,19.29
2022-07-30T00:49:24.374Z,19.31
2022-07-30T00:51:53.699Z,19.25
2022-07-30T00:54:22.772Z,19.26
2022-07-30T00:56:52.124Z,19.18
2022-07-30T00:59:21.044Z,19.16
2022-07-30T01:01:51.029Z,19.14
2022-07-30T01:04:19.819Z,19.06
2022-07-30T01:06:48.909Z,19.20
2022-07-30T01:09:17.511Z,18.50
2022-07-30T01:11:46.239Z,19.13
2022-07-30T01:14:15.436Z,19.16
2022-07-30T01:16:46.083Z,19.03
2022-07-30T01:19:41.899Z,19.20
2022-07-30T01:22:20.341Z,18.99
2022-07-30T01:24:59.957Z,18.87
2022-07-30T01:27:32.503Z,19.19
2022-07-30T01:30:05.827Z,19.15
2022-07-30T01:32:40.280Z,19.19
2022-07-30T01:35:13.919Z,19.12
2022-07-30T01:37:45.536Z,19.20
2022-07-30T01:40:15.928Z,19.20
2022-07-30T01:42:49.707Z,18.84
2022-07-30T01:45:20.379Z,19.23
2022-07-30T01:47:52.226Z,19.18
2022-07-30T01:50:23.697Z,19.14
2022-07-30T01:52:55.968Z,18.71
2022-07-30T01:55:31.745Z,19.15
2022-07-30T01:58:04.695Z,18.13
2022-07-30T02:00:40.219Z,19.16
2022-07-30T02:03:09.659Z,19.13
2022-07-30T02:05:42.392Z,18.91
2022-07-30T02:08:19.888Z,18.65
2022-07-30T02:11:00.061Z,18.92
2022-07-30T02:13:33.697Z,18.79
2022-07-30T02:16:15.495Z,19.08
2022-07-30T02:18:57.100Z,18.92
2022-07-30T02:21:36.734Z,18.78
2022-07-30T02:24:13.081Z,18.92
2022-07-30T02:26:46.410Z,19.08
2022-07-30T02:29:19.001Z,19.08
2022-07-30T02:31:50.021Z,18.88
2022-07-30T02:34:24.364Z,19.07
2022-07-30T02:36:55.303Z,18.58
2022-07-30T02:39:25.056Z,18.88
2022-07-30T02:41:57.857Z,18.73
2022-07-30T02:44:32.086Z,19.00
2022-07-30T02:47:04.843Z,19.02
2022-07-30T02:49:55.274Z,18.63
2022-07-30T02:52:27.862Z,19.04
2022-07-30T02:55:00.410Z,19.02
2022-07-30T02:57:32.730Z,19.01
2022-07-30T03:00:04.402Z,18.72
2022-07-30T03:02:35.059Z,18.23
2022-07-30T03:05:09.617Z,18.95
2022-07-30T03:07:40.388Z,17.67
2022-07-30T03:10:10.699Z,18.96
2022-07-30T03:12:42.779Z,18.17
2022-07-30T03:15:13.810Z,18.70
2022-07-30T03:17:55.652Z,18.91
2022-07-30T03:20:31.979Z,18.74
2022-07-30T03:23:03.877Z,18.45
2022-07-30T03:25:34.750Z,18.79
2022-07-30T03:28:07.012Z,18.64
2022-07-30T03:30:37.713Z,18.61
2022-07-30T03:33:08.064Z,18.77
2022-07-30T03:35:37.287Z,18.75
2022-07-30T03:38:08.150Z,18.79
2022-07-30T03:40:37.281Z,18.83
2022-07-30T03:43:18.561Z,18.78
2022-07-30T03:45:58.765Z,18.74
2022-07-30T03:48:31.562Z,18.77
2022-07-30T03:51:03.222Z,18.77
2022-07-30T03:53:33.870Z,18.69
2022-07-30T03:56:28.883Z,18.78
2022-07-30T03:58:57.573Z,18.79
2022-07-30T04:01:28.691Z,18.78
2022-07-30T04:04:07.671Z,18.77
2022-07-30T04:06:39.898Z,18.80
2022-07-30T04:09:10.209Z,18.81
2022-07-30T04:11:41.248Z,18.82
2022-07-30T04:14:16.394Z,18.82
2022-07-30T04:17:01.170Z,18.66
2022-07-30T04:19:36.770Z,18.69
2022-07-30T04:22:09.159Z,18.88
2022-07-30T04:24:41.345Z,18.90
2022-07-30T04:27:10.700Z,18.92
2022-07-30T04:29:42.429Z,18.94
2022-07-30T04:32:13.261Z,18.97
2022-07-30T04:34:49.543Z,18.99
2022-07-30T04:37:25.729Z,18.93
2022-07-30T04:39:57.875Z,19.05
2022-07-30T04:42:27.634Z,18.85
2022-07-30T04:45:07.360Z,18.96
2022-07-30T04:47:58.504Z,19.06
2022-07-30T04:51:00.624Z,19.16
2022-07-30T04:53:33.685Z,19.21
2022-07-30T04:56:05.444Z,18.62
2022-07-30T04:58:36.926Z,19.34
2022-07-30T05:01:06.837Z,19.13
2022-07-30T05:03:38.785Z,19.35
2022-07-30T05:06:09.226Z,19.40
2022-07-30T05:08:41.862Z,19.08
2022-07-30T05:11:14.405Z,19.38
2022-07-30T05:13:46.391Z,19.23
2022-07-30T05:16:17.153Z,19.40
2022-07-30T05:18:47.647Z,19.44
2022-07-30T05:21:16.497Z,19.50
2022-07-30T05:23:50.922Z,19.30
2022-07-30T05:26:40.348Z,19.65
2022-07-30T05:29:19.636Z,19.70
2022-07-30T05:31:55.681Z,19.73
2022-07-30T05:34:33.662Z,19.50
2022-07-30T05:37:02.834Z,19.88
2022-07-30T05:39:32.491Z,19.77
2022-07-30T05:42:04.345Z,19.65
2022-07-30T05:44:43.238Z,19.58
2022-07-30T05:47:12.754Z,19.68
2022-07-30T05:49:43.406Z,19.74
2022-07-30T05:52:16.516Z,19.79
2022-07-30T05:54:45.956Z,19.50
2022-07-30T05:57:26.732Z,19.91
2022-07-30T05:59:55.695Z,19.96
2022-07-30T06:02:47.844Z,19.89
2022-07-30T06:05:46.506Z,19.71
2022-07-30T06:08:15.340Z,19.68
2022-07-30T06:10:44.025Z,19.40
2022-07-30T06:13:13.558Z,19.86
2022-07-30T06:15:42.439Z,19.68
2022-07-30T06:18:11.567Z,19.98
2022-07-30T06:20:54.353Z,19.98
2022-07-30T06:23:48.286Z,19.94
2022-07-30T06:26:49.812Z,19.94
2022-07-30T06:29:21.720Z,19.96
2022-07-30T06:31:50.445Z,19.83
2022-07-30T06:34:19.160Z,19.91
2022-07-30T06:36:49.680Z,19.89
2022-07-30T06:39:56.810Z,19.86
2022-07-30T06:42:17.227Z,19.85
2022-07-30T06:45:07.635Z,19.87
2022-07-30T06:48:11.580Z,19.89
2022-07-30T06:50:41.573Z,19.77
2022-07-30T06:53:11.847Z,19.85
2022-07-30T06:56:00.607Z,19.78
2022-07-30T06:58:37.607Z,19.78
2022-07-30T07:01:25.131Z,19.78
2022-07-30T07:03:55.491Z,19.74
2022-07-30T07:06:24.347Z,19.64
2022-07-30T07:08:54.348Z,19.58
2022-07-30T07:11:31.218Z,19.23
2022-07-30T07:14:04.878Z,18.90
2022-07-30T07:16:37.305Z,19.23
2022-07-30T07:19:59.470Z,19.33
2022-07-30T07:22:14.177Z,19.43
2022-07-30T07:24:47.282Z,19.58
2022-07-30T07:27:24.098Z,19.78
2022-07-30T07:30:04.666Z,19.88
2022-07-30T07:32:37.971Z,20.14
2022-07-30T07:35:07.978Z,20.00
2022-07-30T07:37:39.990Z,20.09
2022-07-30T07:40:13.233Z,19.96
2022-07-30T07:42:44.262Z,19.68
2022-07-30T07:45:13.705Z,19.68
2022-07-30T07:47:52.950Z,19.86
2022-07-30T07:50:59.671Z,20.04
2022-07-30T07:53:31.761Z,20.11
2022-07-30T07:56:02.035Z,20.10
2022-07-30T07:58:31.447Z,20.10
2022-07-30T08:01:02.955Z,20.08
2022-07-30T08:03:50.528Z,20.18
2022-07-30T08:06:37.785Z,20.19
2022-07-30T08:09:25.339Z,20.23
2022-07-30T08:12:10.468Z,20.40
2022-07-30T08:14:57.995Z,20.61
2022-07-30T08:17:57.065Z,20.02
2022-07-30T08:20:39.674Z,19.98
2022-07-30T08:23:08.972Z,20.01
2022-07-30T08:25:37.578Z,19.85
2022-07-30T08:28:07.863Z,19.91
2022-07-30T08:30:59.156Z,19.78
2022-07-30T08:33:31.104Z,20.08
2022-07-30T08:36:04.198Z,20.50
2022-07-30T08:38:38.968Z,20.72
2022-07-30T08:41:08.657Z,20.48
2022-07-30T08:43:39.478Z,20.56
2022-07-30T08:46:14.547Z,20.87
2022-07-30T08:48:56.334Z,20.77
2022-07-30T08:51:26.701Z,20.76
2022-07-30T08:54:14.709Z,21.00
2022-07-30T08:56:45.794Z,20.61
2022-07-30T08:59:16.061Z,20.48
2022-07-30T09:01:45.098Z,20.66
2022-07-30T09:04:14.452Z,20.83
2022-07-30T09:06:43.210Z,20.88
2022-07-30T09:09:12.462Z,21.15
2022-07-30T09:11:43.046Z,20.64
2022-07-30T09:14:14.386Z,20.80
2022-07-30T09:16:46.493Z,20.51
2022-07-30T09:19:19.120Z,21.09
2022-07-30T09:21:58.318Z,21.35
2022-07-30T09:24:47.191Z,21.52
2022-07-30T09:27:47.789Z,21.28
2022-07-30T09:30:49.387Z,20.83
2022-07-30T09:33:41.825Z,20.77
2022-07-30T09:36:34.133Z,21.05
2022-07-30T09:39:36.814Z,21.16
2022-07-30T09:42:25.166Z,20.63
2022-07-30T09:45:08.119Z,21.16
2022-07-30T09:47:41.265Z,20.95
2022-07-30T09:50:18.080Z,21.51
2022-07-30T09:53:11.877Z,21.54
2022-07-30T09:55:44.854Z,21.42
2022-07-30T09:58:19.980Z,21.14
2022-07-30T10:01:00.539Z,20.77
2022-07-30T10:03:52.582Z,20.69
2022-07-30T10:06:38.055Z,21.09
2022-07-30T10:09:30.787Z,21.44
2022-07-30T10:12:11.236Z,21.60
2022-07-30T10:14:48.409Z,20.86
2022-07-30T10:17:20.915Z,21.45
2022-07-30T10:20:12.326Z,21.75
2022-07-30T10:23:08.950Z,21.75
2022-07-30T10:25:49.176Z,21.88
2022-07-30T10:28:43.674Z,21.72
2022-07-30T10:31:49.181Z,21.59
2022-07-30T10:34:03.344Z,21.30
2022-07-30T10:36:33.319Z,21.68
2022-07-30T10:39:04.462Z,21.20
2022-07-30T10:41:54.130Z,20.70
2022-07-30T10:45:00.991Z,21.53
2022-07-30T10:47:35.531Z,21.66
2022-07-30T10:50:12.550Z,20.91
2022-07-30T10:52:51.656Z,21.40
2022-07-30T10:55:37.004Z,21.34
2022-07-30T10:58:10.003Z,21.47
2022-07-30T11:01:01.852Z,21.23
2022-07-30T11:03:41.192Z,21.66
2022-07-30T11:06:30.510Z,21.45
2022-07-30T11:08:59.735Z,21.17
2022-07-30T11:12:01.308Z,21.28
2022-07-30T11:15:06.828Z,20.89
2022-07-30T11:18:12.869Z,21.75
2022-07-30T11:20:48.807Z,22.26
2022-07-30T11:23:39.355Z,22.21
2022-07-30T11:26:10.274Z,22.02
2022-07-30T11:28:49.384Z,22.12
2022-07-30T11:31:49.882Z,22.37
2022-07-30T11:34:31.138Z,22.54
2022-07-30T11:37:19.226Z,21.83
2022-07-30T11:40:12.314Z,22.04
2022-07-30T11:42:43.725Z,21.48
2022-07-30T11:45:33.610Z,22.03
2022-07-30T11:48:04.799Z,21.31
2022-07-30T11:50:36.134Z,21.70
2022-07-30T11:53:08.139Z,21.65
2022-07-30T11:55:40.309Z,21.29
2022-07-30T11:58:12.070Z,20.99
2022-07-30T12:00:47.939Z,21.33
2022-07-30T12:03:20.260Z,21.66
2022-07-30T12:05:51.235Z,21.82
2022-07-30T12:08:33.451Z,21.97
2022-07-30T12:11:05.053Z,21.95
2022-07-30T12:13:45.034Z,21.92
2022-07-30T12:16:18.466Z,21.16
2022-07-30T12:18:48.737Z,21.37
2022-07-30T12:21:17.775Z,21.50
2022-07-30T12:23:57.431Z,21.18
2022-07-30T12:26:29.079Z,20.83
2022-07-30T12:29:00.518Z,21.09
2022-07-30T12:31:30.802Z,20.97
2022-07-30T12:34:00.765Z,20.79
2022-07-30T12:36:32.696Z,20.96
2022-07-30T12:39:03.606Z,20.80
2022-07-30T12:41:44.263Z,20.67
2022-07-30T12:44:37.277Z,20.59
2022-07-30T12:47:24.166Z,20.79
2022-07-30T12:49:54.101Z,20.70
2022-07-30T12:52:29.434Z,20.51
2022-07-30T12:55:02.840Z,21.06
2022-07-30T12:58:05.372Z,21.25
2022-07-30T13:00:52.307Z,21.18
2022-07-30T13:03:24.296Z,21.53
2022-07-30T13:05:55.966Z,21.41
2022-07-30T13:08:53.986Z,20.84
2022-07-30T13:11:25.249Z,20.93
2022-07-30T13:13:54.668Z,20.64
2022-07-30T13:16:23.409Z,20.90
2022-07-30T13:18:53.422Z,21.14
2022-07-30T13:21:22.073Z,20.93
2022-07-30T13:23:50.937Z,21.59
2022-07-30T13:26:20.062Z,21.21
2022-07-30T13:28:48.721Z,21.75
2022-07-30T13:31:18.321Z,21.99
2022-07-30T13:33:46.903Z,21.63
2022-07-30T13:36:17.013Z,21.61
2022-07-30T13:38:45.696Z,22.32
2022-07-30T13:41:20.824Z,22.05
2022-07-30T13:43:49.432Z,21.55
2022-07-30T13:46:19.207Z,20.80
2022-07-30T13:48:48.139Z,20.92
2022-07-30T13:51:18.859Z,21.32
2022-07-30T13:53:47.689Z,21.45
2022-07-30T13:56:16.963Z,22.00
2022-07-30T13:58:49.242Z,21.69
2022-07-30T14:01:18.560Z,21.95
2022-07-30T14:03:50.557Z,22.59
2022-07-30T14:06:21.458Z,23.46
2022-07-30T14:08:50.209Z,22.61
2022-07-30T14:11:19.168Z,23.01
2022-07-30T14:13:47.953Z,22.70
2022-07-30T14:16:42.524Z,22.27
2022-07-30T14:19:05.988Z,21.82
2022-07-30T14:21:35.993Z,21.20
2022-07-30T14:24:07.907Z,21.09
2022-07-30T14:26:37.464Z,21.16
2022-07-30T14:29:06.842Z,20.90
2022-07-30T14:31:35.975Z,21.07
2022-07-30T14:34:05.800Z,21.63
2022-07-30T14:36:37.509Z,21.80
2022-07-30T14:39:06.678Z,21.92
2022-07-30T14:41:35.299Z,22.08
2022-07-30T14:44:04.287Z,22.07
2022-07-30T14:46:33.233Z,22.50
2022-07-30T14:49:01.969Z,22.65
2022-07-30T14:51:34.600Z,22.06
2022-07-30T14:54:05.339Z,21.26
2022-07-30T14:56:34.448Z,22.63
2022-07-30T14:59:03.039Z,22.44
2022-07-30T15:01:32.058Z,22.99
2022-07-30T15:04:01.092Z,22.49
2022-07-30T15:06:30.057Z,22.86
2022-07-30T15:08:58.775Z,23.43
2022-07-30T15:11:31.102Z,23.50
2022-07-30T15:14:05.313Z,23.08
2022-07-30T15:16:34.562Z,22.67
2022-07-30T15:19:03.194Z,21.86
2022-07-30T15:21:32.112Z,22.35
2022-07-30T15:24:00.836Z,22.23
2022-07-30T15:26:30.813Z,21.64
2022-07-30T15:28:59.725Z,22.14
2022-07-30T15:31:29.028Z,22.45
2022-07-30T15:33:58.216Z,21.72
2022-07-30T15:36:27.282Z,22.87
2022-07-30T15:38:56.317Z,22.86
2022-07-30T15:41:24.930Z,22.87
2022-07-30T15:43:55.068Z,23.33
2022-07-30T15:46:23.789Z,23.32
2022-07-30T15:48:52.443Z,23.55
2022-07-30T15:51:21.514Z,23.23
2022-07-30T15:53:50.272Z,23.10
2022-07-30T15:56:19.001Z,23.16
2022-07-30T15:58:47.542Z,22.74
2022-07-30T16:01:17.827Z,22.61
2022-07-30T16:03:46.557Z,21.80
2022-07-30T16:06:15.605Z,23.37
2022-07-30T16:08:44.240Z,23.12
2022-07-30T16:11:12.901Z,23.05
2022-07-30T16:13:41.880Z,23.03
2022-07-30T16:16:10.771Z,22.87
2022-07-30T16:18:40.789Z,23.42
2022-07-30T16:21:09.632Z,23.29
2022-07-30T16:23:39.471Z,21.90
2022-07-30T16:26:08.246Z,23.50
2022-07-30T16:28:36.875Z,23.65
2022-07-30T16:31:06.731Z,23.65
2022-07-30T16:33:35.563Z,23.45
2022-07-30T16:36:06.094Z,23.65
2022-07-30T16:38:34.808Z,23.66
2022-07-30T16:41:03.432Z,23.80
2022-07-30T16:43:32.264Z,24.18
2022-07-30T16:46:01.140Z,23.97
2022-07-30T16:48:32.268Z,23.07
2022-07-30T16:51:01.363Z,23.19
2022-07-30T16:53:31.437Z,23.45
2022-07-30T16:56:01.219Z,23.26
2022-07-30T16:58:30.820Z,23.72
2022-07-30T17:00:59.902Z,23.41
2022-07-30T17:03:28.839Z,23.11
2022-07-30T17:05:57.743Z,23.18
2022-07-30T17:08:26.447Z,22.92
2022-07-30T17:10:57.959Z,23.01
2022-07-30T17:13:26.816Z,23.07
2022-07-30T17:15:55.745Z,22.99
2022-07-30T17:18:24.542Z,23.05
2022-07-30T17:20:53.423Z,22.73
2022-07-30T17:23:22.518Z,22.81
2022-07-30T17:25:51.493Z,21.98
2022-07-30T17:28:26.906Z,22.61
2022-07-30T17:30:56.365Z,22.61
2022-07-30T17:33:25.048Z,22.54
2022-07-30T17:35:53.870Z,22.30
2022-07-30T17:38:22.778Z,22.36
2022-07-30T17:40:51.511Z,22.01
2022-07-30T17:43:21.575Z,22.38
2022-07-30T17:45:50.598Z,21.51
2022-07-30T17:48:19.302Z,22.08
2022-07-30T17:50:48.001Z,22.27
2022-07-30T17:53:17.014Z,22.15
2022-07-30T17:55:57.537Z,22.83
2022-07-30T17:58:28.392Z,22.71
2022-07-30T18:00:58.642Z,22.69
2022-07-30T18:03:27.318Z,22.77
2022-07-30T18:05:56.306Z,23.05
2022-07-30T18:08:25.891Z,23.29
2022-07-30T18:10:54.562Z,23.33
2022-07-30T18:13:27.081Z,23.40
2022-07-30T18:15:58.302Z,23.27
2022-07-30T18:18:27.122Z,22.48
2022-07-30T18:20:55.689Z,22.69
2022-07-30T18:23:24.504Z,22.59
2022-07-30T18:26:03.301Z,22.42
2022-07-30T18:28:32.089Z,21.99
2022-07-30T18:31:02.315Z,21.92
2022-07-30T18:33:31.307Z,22.00
2022-07-30T18:36:00.251Z,21.91
2022-07-30T18:38:29.203Z,21.88
2022-07-30T18:41:02.496Z,21.81
2022-07-30T18:43:32.528Z,21.75
2022-07-30T18:46:18.288Z,21.66
2022-07-30T18:48:48.822Z,21.53
2022-07-30T18:51:18.713Z,21.43
2022-07-30T18:53:47.629Z,21.35
2022-07-30T18:56:16.542Z,21.26
2022-07-30T18:58:45.302Z,21.14
2022-07-30T19:01:14.421Z,21.04
2022-07-30T19:03:44.682Z,20.74
2022-07-30T19:06:14.878Z,20.81
2022-07-30T19:08:43.834Z,20.72
2022-07-30T19:11:12.548Z,20.66
2022-07-30T19:13:41.350Z,20.61
2022-07-30T19:16:10.674Z,20.46
2022-07-30T19:18:39.399Z,20.24
2022-07-30T19:21:13.930Z,20.39
2022-07-30T19:23:43.200Z,20.27
2022-07-30T19:26:13.869Z,20.18
2022-07-30T19:28:42.817Z,20.10
2022-07-30T19:31:11.704Z,19.63
2022-07-30T19:33:41.406Z,19.96
2022-07-30T19:36:13.013Z,19.51
2022-07-30T19:38:44.287Z,19.82
2022-07-30T19:41:14.150Z,19.74
2022-07-30T19:43:43.179Z,19.49
2022-07-30T19:46:26.486Z,19.57
2022-07-30T19:48:55.310Z,19.49
2022-07-30T19:51:25.641Z,19.43
2022-07-30T19:54:15.297Z,19.33
2022-07-30T19:56:46.414Z,19.23
2022-07-30T19:59:15.777Z,19.15
2022-07-30T20:01:51.726Z,19.05
2022-07-30T20:04:20.911Z,18.50
2022-07-30T20:06:52.822Z,18.81
2022-07-30T20:09:21.585Z,17.37
2022-07-30T20:11:50.809Z,18.56
2022-07-30T20:14:20.938Z,18.42
2022-07-30T20:16:49.583Z,18.28
2022-07-30T20:19:20.231Z,18.09
2022-07-30T20:21:56.521Z,18.01
2022-07-30T20:24:26.621Z,17.79
2022-07-30T20:26:55.296Z,17.78
2022-07-30T20:29:23.964Z,17.67
2022-07-30T20:31:53.563Z,17.58
2022-07-30T20:34:25.998Z,17.36
2022-07-30T20:36:57.815Z,17.40
2022-07-30T20:39:46.469Z,16.93
2022-07-30T20:42:18.577Z,17.20
2022-07-30T20:44:50.668Z,17.09
2022-07-30T20:47:34.298Z,17.00
2022-07-30T20:50:09.541Z,16.89
2022-07-30T20:52:46.719Z,16.85
2022-07-30T20:55:17.745Z,16.65
2022-07-30T20:58:01.949Z,16.36
2022-07-30T21:00:37.240Z,16.67
2022-07-30T21:03:06.747Z,16.64
2022-07-30T21:05:44.080Z,16.60
2022-07-30T21:08:15.895Z,16.54
2022-07-30T21:10:46.834Z,16.28
2022-07-30T21:13:15.484Z,16.10
2022-07-30T21:15:45.408Z,16.43
2022-07-30T21:18:32.597Z,16.10
2022-07-30T21:21:04.894Z,16.31
2022-07-30T21:23:35.641Z,15.87
2022-07-30T21:26:10.615Z,16.21
2022-07-30T21:28:42.231Z,16.04
2022-07-30T21:31:11.492Z,16.16
2022-07-30T21:33:40.528Z,16.12
2022-07-30T21:36:10.099Z,16.11
2022-07-30T21:38:41.813Z,15.79
2022-07-30T21:44:01.442Z,16.06
2022-07-30T21:46:31.587Z,16.00
2022-07-30T21:49:00.555Z,15.98
2022-07-30T21:51:30.294Z,15.97
2022-07-30T21:54:06.998Z,15.93
2022-07-30T21:56:41.488Z,15.94
2022-07-30T21:59:10.722Z,15.97
2022-07-30T22:01:47.452Z,15.78
2022-07-30T22:04:16.636Z,16.05
2022-07-30T22:06:45.584Z,16.11
2022-07-30T22:09:33.202Z,16.19
2022-07-30T22:12:09.271Z,16.31
2022-07-30T22:14:41.451Z,16.38
2022-07-30T22:17:22.763Z,16.42
2022-07-30T22:19:58.495Z,16.45
2022-07-30T22:22:33.039Z,16.48
2022-07-30T22:25:09.563Z,16.47
2022-07-30T22:27:40.103Z,16.50
2022-07-30T22:30:26.807Z,16.62
2022-07-30T22:33:08.126Z,16.69
2022-07-30T22:35:37.912Z,16.74
2022-07-30T22:38:08.235Z,16.65
2022-07-30T22:40:39.453Z,16.57
2022-07-30T22:43:12.543Z,16.37
2022-07-30T22:45:59.870Z,16.56
2022-07-30T22:48:29.228Z,16.46
2022-07-30T22:50:58.542Z,16.38
2022-07-30T22:54:11.173Z,16.24
2022-07-30T22:56:23.887Z,16.08
2022-07-30T22:58:53.178Z,15.89
2022-07-30T23:01:21.879Z,15.81
2022-07-30T23:03:51.696Z,15.78
2022-07-30T23:06:22.582Z,15.54
2022-07-30T23:08:51.545Z,15.63
2022-07-30T23:11:23.041Z,15.25
2022-07-30T23:12:27.581Z,15.78
2022-07-30T23:13:53.878Z,15.28
2022-07-30T23:16:23.215Z,15.44
2022-07-30T23:18:52.184Z,15.36
2022-07-30T23:21:20.874Z,15.29
2022-07-30T23:23:49.894Z,15.23
2022-07-30T23:26:18.581Z,15.03
2022-07-30T23:28:48.594Z,14.77
2022-07-30T23:31:17.470Z,15.09
2022-07-30T23:33:46.391Z,15.09
2022-07-30T23:36:15.186Z,15.06
2022-07-30T23:38:43.922Z,14.99
2022-07-30T23:41:14.986Z,14.42
2022-07-30T23:44:00.018Z,14.36
2022-07-30T23:46:28.757Z,14.87
2022-07-30T23:48:57.708Z,14.83
2022-07-30T23:51:26.828Z,14.81
2022-07-30T23:54:03.617Z,14.76
2022-07-30T23:56:32.499Z,14.62
2022-07-30T23:59:02.465Z,14.52
